Antes Fort, Pennsylvania
Current Conditions -  °F | °C
As of 10:54 AM on Thursday 29 Jan 2015 (Local Time) from KIPT Reporting Station
Broken Clouds Broken Clouds  
Wind Chill:   Ceiling: 10000
Heat Index: 14°   Visibility: 10mi
Dew Point:   Wind: 5mph
Humidity: 64%   Direction: 140°SE
Pressure: 30.21"   Gusts: NA
Location:  41.19°N, 77.22°W
Report Text: KIPT 291554Z 14004KT 10SM BKN100 M10/M16 A3021 RMK AO2 SLP239 T11001156
Loading
Personal Weather Stations






























Interactive Weather Map New forecast layout! Learn more

10-Day Weather Forecast

Advertisements
Track Severe Weather on mobile